Time;durP1;ratioP1;P1;durP2;ratioP2;P2;SDS_P1;SDS_P2;PMS_P1;PMS_P2;Temp;Humidity;BMP_temperature;BMP_pressure;BME280_temperature;BME280_humidity;BME280_pressure;Samples;Min_cycle;Max_cycle;Signal;HPM_P1;HPM_P2
2023/07/17 00:00:31;;;;;;;17.92;13.63;;;;;;;24.42;100.00;97659.34;5056180;28;20101;-75
2023/07/17 00:02:57;;;;;;;21.00;14.65;;;;;;;24.38;100.00;97658.84;5053363;28;20111;-75
2023/07/17 00:05:23;;;;;;;21.27;14.35;;;;;;;24.40;100.00;97664.13;5036119;28;20027;-75
2023/07/17 00:07:48;;;;;;;20.60;14.43;;;;;;;24.41;100.00;97665.84;5046937;28;20729;-75
2023/07/17 00:10:14;;;;;;;17.50;13.48;;;;;;;24.39;100.00;97679.69;5044377;28;20028;-75
2023/07/17 00:12:40;;;;;;;22.75;15.50;;;;;;;24.23;100.00;97671.56;5059407;28;20037;-75
2023/07/17 00:15:07;;;;;;;22.00;15.40;;;;;;;24.27;100.00;97675.66;5035552;28;20086;-76
2023/07/17 00:17:33;;;;;;;26.13;15.07;;;;;;;24.21;100.00;97677.19;5060146;28;20048;-75
2023/07/17 00:19:59;;;;;;;18.73;14.52;;;;;;;24.19;100.00;97682.00;5049168;28;20021;-76
2023/07/17 00:22:25;;;;;;;23.88;14.65;;;;;;;24.20;100.00;97678.25;5065479;28;20035;-74
2023/07/17 00:24:51;;;;;;;24.38;14.18;;;;;;;24.10;100.00;97683.03;5059973;28;20459;-74
2023/07/17 00:27:17;;;;;;;21.33;15.35;;;;;;;24.03;100.00;97676.53;5044910;28;20090;-73
2023/07/17 00:29:48;;;;;;;22.48;14.82;;;;;;;24.00;100.00;97681.50;5062405;28;20029;-74
2023/07/17 00:32:14;;;;;;;20.70;15.05;;;;;;;23.92;100.00;97673.34;5045999;28;20025;-75
2023/07/17 00:34:40;;;;;;;24.60;15.32;;;;;;;23.89;100.00;97685.47;5043788;28;20048;-74
2023/07/17 00:37:07;;;;;;;21.20;14.73;;;;;;;23.82;100.00;97683.59;5042104;28;20040;-74
2023/07/17 00:39:33;;;;;;;20.52;15.15;;;;;;;23.77;100.00;97686.88;5051959;28;20040;-74
2023/07/17 00:42:01;;;;;;;21.45;15.75;;;;;;;23.75;100.00;97683.44;5048654;28;20037;-74
2023/07/17 00:44:27;;;;;;;20.05;14.68;;;;;;;23.71;100.00;97690.31;5048876;28;20086;-74
2023/07/17 00:46:52;;;;;;;22.30;15.38;;;;;;;23.68;100.00;97691.50;5060352;28;20074;-74
2023/07/17 00:49:19;;;;;;;22.48;16.33;;;;;;;23.63;100.00;97696.63;5051587;28;20029;-76
2023/07/17 00:51:45;;;;;;;19.83;15.30;;;;;;;23.66;100.00;97693.53;5064044;28;20100;-75
2023/07/17 00:54:14;;;;;;;28.17;15.90;;;;;;;23.69;100.00;97690.47;5052802;28;20051;-74
2023/07/17 00:56:40;;;;;;;23.58;15.70;;;;;;;23.65;100.00;97677.34;5066678;28;20024;-73
2023/07/17 00:59:06;;;;;;;23.92;16.60;;;;;;;23.60;100.00;97691.50;5071107;28;20029;-74
2023/07/17 01:01:33;;;;;;;19.98;15.52;;;;;;;23.62;100.00;97696.81;5043656;28;20028;-75
2023/07/17 01:04:01;;;;;;;23.40;16.35;;;;;;;23.56;100.00;97695.59;5052583;28;20044;-74
2023/07/17 01:06:27;;;;;;;23.48;15.57;;;;;;;23.52;100.00;97680.59;5066147;28;20017;-74
2023/07/17 01:08:52;;;;;;;21.05;15.13;;;;;;;23.57;100.00;97686.38;5050274;28;20051;-75
2023/07/17 01:11:18;;;;;;;19.83;15.13;;;;;;;23.48;100.00;97671.03;5065442;28;20048;-75
2023/07/17 01:13:49;;;;;;;23.95;16.80;;;;;;;23.56;100.00;97681.13;5054465;28;20395;-75
2023/07/17 01:16:15;;;;;;;24.05;15.75;;;;;;;23.41;100.00;97674.66;5042335;28;20052;-75
2023/07/17 01:18:41;;;;;;;21.45;16.15;;;;;;;23.39;100.00;97682.09;5060551;28;20109;-75
2023/07/17 01:21:08;;;;;;;22.13;16.85;;;;;;;23.31;100.00;97690.31;5060826;28;20028;-75
2023/07/17 01:23:34;;;;;;;22.88;16.35;;;;;;;23.21;100.00;97691.34;5057545;28;20024;-75
2023/07/17 01:26:00;;;;;;;23.35;15.60;;;;;;;23.16;100.00;97688.25;5057678;28;20047;-74
2023/07/17 01:28:25;;;;;;;22.95;16.52;;;;;;;23.13;100.00;97682.28;5042869;28;20032;-75
2023/07/17 01:30:51;;;;;;;21.35;16.67;;;;;;;23.19;100.00;97692.53;5064170;28;20444;-75
2023/07/17 01:33:17;;;;;;;25.67;16.75;;;;;;;23.22;100.00;97701.22;5068161;28;20549;-74
2023/07/17 01:35:43;;;;;;;25.33;16.75;;;;;;;23.20;100.00;97700.53;5042928;28;20074;-75
2023/07/17 01:38:09;;;;;;;21.77;16.38;;;;;;;23.18;100.00;97688.94;5069293;28;20071;-74
2023/07/17 01:40:34;;;;;;;25.65;16.48;;;;;;;23.22;100.00;97703.09;5063901;28;20029;-74
2023/07/17 01:43:00;;;;;;;27.55;15.75;;;;;;;23.17;100.00;97691.81;5038541;28;20441;-74
2023/07/17 01:45:25;;;;;;;24.10;15.95;;;;;;;23.14;100.00;97694.91;5049516;28;20028;-74
2023/07/17 01:47:51;;;;;;;21.88;15.07;;;;;;;23.09;100.00;97703.59;5047735;28;20063;-75
2023/07/17 01:50:16;;;;;;;24.92;16.80;;;;;;;23.10;100.00;97694.38;5038869;28;20065;-74
2023/07/17 01:52:41;;;;;;;21.42;16.15;;;;;;;23.14;100.00;97686.72;5063032;28;20033;-75
2023/07/17 01:55:07;;;;;;;25.58;15.88;;;;;;;23.14;100.00;97690.28;5052159;28;20484;-74
2023/07/17 01:57:33;;;;;;;21.08;15.23;;;;;;;23.13;100.00;97699.50;5064506;28;20028;-74
2023/07/17 01:59:58;;;;;;;21.27;15.43;;;;;;;23.12;100.00;97702.41;5049067;28;20597;-75
2023/07/17 02:02:25;;;;;;;20.75;15.00;;;;;;;23.07;100.00;97689.25;5059723;28;20051;-75
2023/07/17 02:04:51;;;;;;;24.50;15.55;;;;;;;23.09;100.00;97692.69;5039503;28;20456;-75
2023/07/17 02:07:16;;;;;;;25.02;15.88;;;;;;;23.13;100.00;97694.03;5056214;28;20029;-74
2023/07/17 02:09:42;;;;;;;23.73;15.50;;;;;;;23.09;100.00;97700.03;5042267;28;20048;-75
2023/07/17 02:12:08;;;;;;;25.83;15.85;;;;;;;23.10;100.00;97694.38;5044259;28;20471;-75
2023/07/17 02:14:34;;;;;;;24.52;15.32;;;;;;;23.14;100.00;97700.34;5061206;28;20127;-74
2023/07/17 02:17:00;;;;;;;24.95;16.33;;;;;;;23.07;100.00;97700.19;5057931;28;20110;-75
2023/07/17 02:19:25;;;;;;;23.33;16.63;;;;;;;23.06;100.00;97712.13;5052394;28;20032;-75
2023/07/17 02:21:51;;;;;;;29.85;16.40;;;;;;;22.97;100.00;97710.41;5034533;28;20031;-74
2023/07/17 02:24:16;;;;;;;20.48;14.52;;;;;;;22.94;100.00;97709.91;5064447;28;20565;-74
2023/07/17 02:26:42;;;;;;;27.30;16.60;;;;;;;22.89;100.00;97713.13;5057608;28;20035;-75
2023/07/17 02:29:07;;;;;;;27.38;18.00;;;;;;;22.91;100.00;97722.00;5064802;28;20024;-75
2023/07/17 02:31:33;;;;;;;27.27;16.83;;;;;;;22.83;100.00;97716.50;5044108;28;20040;-74
2023/07/17 02:33:59;;;;;;;26.48;15.80;;;;;;;22.85;100.00;97716.38;5062195;28;20470;-74
2023/07/17 02:36:24;;;;;;;29.35;16.63;;;;;;;22.83;100.00;97710.19;5053816;28;20055;-74
2023/07/17 02:38:50;;;;;;;26.33;17.05;;;;;;;22.83;100.00;97719.25;5061758;28;20385;-75
2023/07/17 02:41:15;;;;;;;24.33;16.80;;;;;;;22.75;100.00;97721.09;5037152;28;20031;-74
2023/07/17 02:43:41;;;;;;;25.80;16.33;;;;;;;22.75;100.00;97721.97;5066914;28;20108;-74
2023/07/17 02:46:06;;;;;;;23.98;15.93;;;;;;;22.69;100.00;97725.34;5064836;28;20028;-74
2023/07/17 02:48:32;;;;;;;26.60;16.80;;;;;;;22.61;100.00;97720.69;5045173;28;20086;-74
2023/07/17 02:50:57;;;;;;;21.90;16.40;;;;;;;22.62;100.00;97716.09;5039513;28;20504;-75
2023/07/17 02:53:23;;;;;;;24.08;16.67;;;;;;;22.57;100.00;97715.75;5061330;28;20044;-75
2023/07/17 02:55:48;;;;;;;25.08;16.45;;;;;;;22.55;100.00;97717.75;5057904;28;20028;-75
2023/07/17 02:58:16;;;;;;;22.65;15.70;;;;;;;22.57;100.00;97726.66;5066449;28;20411;-74
2023/07/17 03:00:42;;;;;;;23.65;15.70;;;;;;;22.52;100.00;97718.94;5062890;28;20024;-74
2023/07/17 03:03:08;;;;;;;21.52;15.57;;;;;;;22.47;100.00;97718.59;5054220;28;20039;-74
2023/07/17 03:05:35;;;;;;;28.95;16.55;;;;;;;22.47;100.00;97721.31;5063836;28;20052;-74
2023/07/17 03:08:00;;;;;;;29.33;16.50;;;;;;;22.45;100.00;97730.69;5059475;28;20035;-74
2023/07/17 03:10:27;;;;;;;27.02;16.17;;;;;;;22.40;100.00;97731.16;5059655;28;20032;-74
2023/07/17 03:12:52;;;;;;;24.30;16.00;;;;;;;22.37;100.00;97736.09;5063787;28;20036;-74
2023/07/17 03:15:18;;;;;;;26.77;16.10;;;;;;;22.36;100.00;97738.00;5061847;28;20025;-74
2023/07/17 03:17:43;;;;;;;31.20;16.88;;;;;;;22.33;100.00;97735.59;5059965;28;20048;-73
2023/07/17 03:20:10;;;;;;;25.65;16.85;;;;;;;22.27;100.00;97733.50;5054723;28;20096;-74
2023/07/17 03:22:38;;;;;;;27.63;16.92;;;;;;;22.31;100.00;97739.47;5058928;28;20384;-73
2023/07/17 03:25:05;;;;;;;33.58;18.52;;;;;;;22.29;100.00;97747.84;5045290;28;20028;-74
2023/07/17 03:27:31;;;;;;;24.70;16.77;;;;;;;22.30;100.00;97751.41;5054087;28;20551;-74
2023/07/17 03:29:56;;;;;;;26.35;16.92;;;;;;;22.34;100.00;97744.59;5041481;28;20129;-74
2023/07/17 03:32:22;;;;;;;29.40;18.27;;;;;;;22.35;100.00;97758.09;5054446;28;20025;-74
2023/07/17 03:34:47;;;;;;;26.23;15.60;;;;;;;22.37;100.00;97756.03;5041709;28;20027;-74
2023/07/17 03:37:13;;;;;;;27.60;16.58;;;;;;;22.37;100.00;97756.03;5057099;28;20385;-74
2023/07/17 03:39:38;;;;;;;23.58;16.25;;;;;;;22.45;100.00;97750.63;5055971;28;20100;-74
2023/07/17 03:42:10;;;;;;;23.90;15.68;;;;;;;22.56;100.00;97760.38;5060771;28;20021;-75
2023/07/17 03:44:38;;;;;;;28.50;16.70;;;;;;;22.62;100.00;97760.59;5062195;28;20029;-74
2023/07/17 03:47:05;;;;;;;24.75;16.02;;;;;;;22.66;100.00;97745.63;5051155;28;20514;-74
2023/07/17 03:49:31;;;;;;;21.52;16.27;;;;;;;22.66;100.00;97742.91;5060677;28;20040;-73
2023/07/17 03:51:58;;;;;;;22.35;15.50;;;;;;;22.74;100.00;97752.13;5065599;28;20028;-74
2023/07/17 03:54:24;;;;;;;22.02;16.08;;;;;;;22.87;100.00;97747.91;5059538;28;20024;-73
2023/07/17 03:56:49;;;;;;;23.77;16.25;;;;;;;22.93;100.00;97741.78;5051548;28;20039;-73
2023/07/17 03:59:15;;;;;;;22.67;16.40;;;;;;;22.97;100.00;97745.03;5055101;28;20392;-74
2023/07/17 04:01:40;;;;;;;26.02;16.20;;;;;;;23.07;100.00;97753.94;5066060;28;20024;-74
2023/07/17 04:04:06;;;;;;;38.75;17.38;;;;;;;23.17;100.00;97754.59;5060382;28;20032;-74
2023/07/17 04:06:32;;;;;;;36.20;18.52;;;;;;;23.25;100.00;97756.50;5054546;28;20037;-74
2023/07/17 04:08:57;;;;;;;31.27;15.50;;;;;;;23.35;100.00;97749.03;5059134;28;20444;-74
2023/07/17 04:11:24;;;;;;;43.05;16.42;;;;;;;23.41;100.00;97748.38;5052138;28;20032;-74
2023/07/17 04:13:52;;;;;;;25.10;15.52;;;;;;;23.48;100.00;97757.56;5045691;28;20029;-74
2023/07/17 04:16:26;;;;;;;21.85;14.80;;;;;;;23.51;100.00;97752.63;5066259;28;20039;-74
2023/07/17 04:18:55;;;;;;;22.80;14.80;;;;;;;23.56;100.00;97752.13;5038605;28;20033;-74
2023/07/17 04:21:20;;;;;;;29.98;14.40;;;;;;;23.66;100.00;97752.78;5052838;28;20032;-74
2023/07/17 04:23:50;;;;;;;29.40;14.60;;;;;;;23.66;100.00;97750.06;5058812;28;20024;-73
2023/07/17 04:26:16;;;;;;;34.33;14.73;;;;;;;23.77;100.00;97755.19;5064548;28;20476;-72
2023/07/17 04:28:42;;;;;;;27.45;15.05;;;;;;;23.85;100.00;97757.03;5066652;28;20047;-71
2023/07/17 04:31:07;;;;;;;27.50;15.00;;;;;;;23.89;100.00;97761.16;5054278;28;20037;-75
2023/07/17 04:33:33;;;;;;;24.67;13.73;;;;;;;23.97;100.00;97758.38;5059834;28;20452;-72
2023/07/17 04:35:58;;;;;;;24.85;17.15;;;;;;;24.12;100.00;97767.59;5073463;28;20108;-73
2023/07/17 04:38:24;;;;;;;26.67;14.57;;;;;;;24.25;100.00;97763.31;5063701;28;20021;-73
2023/07/17 04:40:49;;;;;;;25.98;14.80;;;;;;;24.40;100.00;97755.22;5056157;28;20056;-73
2023/07/17 04:43:15;;;;;;;30.83;13.95;;;;;;;24.52;100.00;97761.16;5065930;28;20028;-72
2023/07/17 04:45:42;;;;;;;21.00;14.20;;;;;;;24.44;100.00;97750.25;5041521;28;20036;-73
2023/07/17 04:48:07;;;;;;;29.35;14.85;;;;;;;24.62;100.00;97759.94;5058566;28;20086;-74
2023/07/17 04:50:33;;;;;;;22.58;14.57;;;;;;;24.70;100.00;97748.94;5044163;28;20130;-75
2023/07/17 04:52:58;;;;;;;48.28;18.70;;;;;;;24.82;100.00;97748.59;5068205;28;20511;-74
2023/07/17 04:55:24;;;;;;;56.28;18.60;;;;;;;24.87;100.00;97757.13;5060636;28;20086;-73
2023/07/17 04:57:49;;;;;;;43.22;16.77;;;;;;;24.85;100.00;97753.72;5066306;28;20033;-73
2023/07/17 05:00:16;;;;;;;42.55;16.77;;;;;;;24.91;100.00;97753.84;5047237;28;20036;-73
2023/07/17 05:02:41;;;;;;;25.58;14.75;;;;;;;24.95;100.00;97760.66;5035809;28;20021;-72
2023/07/17 05:05:07;;;;;;;22.58;13.10;;;;;;;25.32;100.00;97758.03;5036133;28;20035;-72
2023/07/17 05:07:33;;;;;;;33.13;15.38;;;;;;;26.30;100.00;97764.38;5035851;28;20075;-73
2023/07/17 05:09:58;;;;;;;32.42;16.80;;;;;;;27.72;100.00;97756.47;5052753;28;20408;-78
2023/07/17 05:12:24;;;;;;;17.77;12.57;;;;;;;28.12;100.00;97743.91;5035845;28;20059;-73
2023/07/17 05:14:49;;;;;;;18.90;11.43;;;;;;;28.33;100.00;97743.84;5035608;28;20129;-73
2023/07/17 05:17:15;;;;;;;28.08;12.68;;;;;;;28.98;100.00;97745.28;5052427;28;20039;-73
2023/07/17 05:19:40;;;;;;;18.58;11.30;;;;;;;29.31;100.00;97748.19;5052607;28;20196;-73
2023/07/17 05:22:06;;;;;;;20.95;11.65;;;;;;;28.94;100.00;97744.88;5071649;28;20020;-73
2023/07/17 05:24:32;;;;;;;19.85;11.40;;;;;;;29.30;100.00;97752.00;5055473;28;20036;-72
2023/07/17 05:26:58;;;;;;;18.75;10.77;;;;;;;29.84;100.00;97751.94;5072306;28;20086;-73
2023/07/17 05:29:23;;;;;;;33.60;20.80;;;;;;;31.21;100.00;97749.97;5071810;28;20024;-73
2023/07/17 05:31:49;;;;;;;36.25;13.25;;;;;;;32.18;100.00;97744.88;5073015;28;20049;-73
2023/07/17 05:34:14;;;;;;;37.20;25.58;;;;;;;32.93;97.24;97745.59;5071656;28;20048;-73
2023/07/17 05:36:40;;;;;;;14.52;11.32;;;;;;;33.97;91.00;97756.34;5073436;28;20028;-74
2023/07/17 05:39:05;;;;;;;21.05;10.80;;;;;;;34.79;77.91;97728.41;5073055;28;20448;-73
2023/07/17 05:41:32;;;;;;;21.00;14.93;;;;;;;35.57;84.87;97757.59;5072206;28;20036;-73
2023/07/17 05:43:58;;;;;;;16.52;9.88;;;;;;;35.95;64.16;97732.75;5071790;28;20107;-74
2023/07/17 05:46:24;;;;;;;21.52;10.23;;;;;;;35.80;71.75;97744.47;5068408;28;20083;-73
2023/07/17 05:48:49;;;;;;;15.35;9.38;;;;;;;36.00;62.91;97734.75;5053271;28;20056;-73
2023/07/17 05:51:15;;;;;;;35.63;23.88;;;;;;;36.40;68.40;97739.09;5034740;28;20025;-74
2023/07/17 05:53:41;;;;;;;35.95;23.85;;;;;;;36.66;74.64;97757.13;5051635;28;20029;-73
2023/07/17 05:56:06;;;;;;;27.30;15.00;;;;;;;37.25;69.94;97744.31;5052930;28;20094;-73
2023/07/17 05:58:32;;;;;;;20.73;10.98;;;;;;;37.76;62.16;97739.31;5051754;28;20108;-73
2023/07/17 06:00:57;;;;;;;20.27;10.68;;;;;;;38.41;59.88;97739.13;5051456;28;20496;-73
2023/07/17 06:03:23;;;;;;;23.20;14.57;;;;;;;38.77;64.86;97743.00;5052603;28;20017;-73
2023/07/17 06:05:48;;;;;;;24.15;18.42;;;;;;;38.59;56.96;97735.91;5034920;28;20036;-73
2023/07/17 06:08:14;;;;;;;31.45;18.33;;;;;;;38.52;54.14;97732.47;5052647;28;20033;-72
2023/07/17 06:10:42;;;;;;;29.98;11.73;;;;;;;38.43;52.75;97732.16;5052798;28;20024;-73
2023/07/17 06:13:08;;;;;;;12.50;9.60;;;;;;;38.08;50.99;97725.41;5034829;28;20025;-72
2023/07/17 06:15:33;;;;;;;12.88;9.30;;;;;;;38.09;51.74;97725.13;5034907;28;20056;-72
2023/07/17 06:17:59;;;;;;;15.65;8.93;;;;;;;38.70;49.63;97718.06;5052464;28;20423;-73
2023/07/17 06:20:24;;;;;;;13.52;10.75;;;;;;;38.48;52.35;97728.56;5043006;28;20460;-73
2023/07/17 06:22:50;;;;;;;12.40;9.43;;;;;;;39.48;47.31;97716.25;5052571;28;20021;-73
2023/07/17 06:25:16;;;;;;;12.45;8.65;;;;;;;39.70;46.02;97705.69;5034261;28;20048;-75
2023/07/17 06:27:41;;;;;;;30.90;10.30;;;;;;;40.01;45.85;97713.00;5051198;28;20021;-73
2023/07/17 06:30:07;;;;;;;25.27;9.93;;;;;;;39.93;45.86;97705.13;5050957;28;20116;-74
2023/07/17 06:32:33;;;;;;;19.08;9.57;;;;;;;39.79;47.11;97718.03;5052675;28;20108;-73
2023/07/17 06:34:58;;;;;;;21.77;9.82;;;;;;;39.86;46.57;97709.34;5042218;28;20036;-74
2023/07/17 06:37:24;;;;;;;37.92;21.92;;;;;;;40.14;49.94;97720.06;5070591;28;20074;-74
2023/07/17 06:39:49;;;;;;;26.15;9.82;;;;;;;40.28;45.77;97712.75;5054273;28;20514;-74
2023/07/17 06:42:15;;;;;;;51.10;35.10;;;;;;;40.67;47.26;97715.81;5070742;28;20032;-73
2023/07/17 06:44:40;;;;;;;23.60;11.23;;;;;;;40.99;43.06;97707.91;5070643;28;20008;-74
2023/07/17 06:47:06;;;;;;;14.82;9.30;;;;;;;41.09;43.69;97704.22;5071125;28;20048;-73
2023/07/17 06:49:32;;;;;;;30.02;12.82;;;;;;;41.19;42.11;97703.34;5070681;28;20021;-73
2023/07/17 06:51:57;;;;;;;24.88;10.88;;;;;;;41.49;41.72;97698.47;5070670;28;20032;-74
2023/07/17 06:54:23;;;;;;;55.65;43.63;;;;;;;41.11;44.54;97705.63;5070222;28;20085;-73
2023/07/17 06:56:48;;;;;;;26.48;16.98;;;;;;;41.18;44.03;97701.66;5053795;28;20025;-74
2023/07/17 06:59:14;;;;;;;15.80;9.45;;;;;;;41.32;41.85;97695.13;5070477;28;20033;-73
2023/07/17 07:01:39;;;;;;;102.93;84.97;;;;;;;41.13;43.61;97694.94;5053857;28;20039;-74
2023/07/17 07:04:05;;;;;;;37.05;20.38;;;;;;;41.49;41.54;97692.00;5053625;28;20395;-74
2023/07/17 07:06:30;;;;;;;26.95;17.83;;;;;;;41.79;41.71;97699.41;5071486;28;20028;-73
2023/07/17 07:08:56;;;;;;;35.70;23.17;;;;;;;41.77;41.06;97693.25;5053848;28;20089;-74
2023/07/17 07:11:21;;;;;;;18.55;9.30;;;;;;;42.23;39.77;97691.78;5069460;28;20029;-74
2023/07/17 07:13:47;;;;;;;15.18;8.43;;;;;;;42.62;38.58;97688.91;5033500;28;20032;-74
2023/07/17 07:16:12;;;;;;;13.80;11.73;;;;;;;42.40;38.95;97685.72;5050068;28;20421;-74
2023/07/17 07:18:38;;;;;;;27.58;12.95;;;;;;;42.80;37.51;97671.25;5053752;28;20025;-74
2023/07/17 07:21:04;;;;;;;13.20;8.25;;;;;;;42.46;37.62;97676.09;5069971;28;20032;-72
2023/07/17 07:23:29;;;;;;;16.65;8.38;;;;;;;43.18;36.55;97667.44;5069744;28;20029;-74
2023/07/17 07:25:55;;;;;;;10.40;7.75;;;;;;;43.54;36.15;97665.00;5069850;28;20031;-74
2023/07/17 07:28:21;;;;;;;18.77;9.70;;;;;;;42.98;36.38;97661.22;5060558;28;20033;-72
2023/07/17 07:30:47;;;;;;;15.57;8.57;;;;;;;43.37;35.84;97658.19;5049970;28;20569;-73
2023/07/17 07:33:13;;;;;;;9.20;7.50;;;;;;;43.56;35.61;97659.06;5049318;28;20065;-74
2023/07/17 07:35:44;;;;;;;10.93;8.20;;;;;;;43.19;35.53;97657.81;5050832;28;20036;-74
2023/07/17 07:38:10;;;;;;;13.57;8.35;;;;;;;43.40;35.75;97657.59;5050463;28;20080;-74
2023/07/17 07:40:36;;;;;;;12.32;7.55;;;;;;;44.01;35.05;97652.72;5049463;28;20052;-73
2023/07/17 07:43:02;;;;;;;13.48;8.07;;;;;;;44.65;34.49;97657.53;5051060;28;20017;-73
2023/07/17 07:45:27;;;;;;;11.05;8.10;;;;;;;44.72;34.12;97655.16;5050689;28;20029;-73
2023/07/17 07:47:54;;;;;;;26.75;9.88;;;;;;;44.71;33.86;97653.47;5049781;28;20029;-73
2023/07/17 07:50:20;;;;;;;13.35;8.55;;;;;;;44.87;33.86;97648.34;5049014;28;20028;-74
2023/07/17 07:52:45;;;;;;;10.23;8.00;;;;;;;44.81;33.00;97648.75;5050642;28;20021;-73
2023/07/17 07:55:11;;;;;;;16.08;8.07;;;;;;;44.70;33.21;97648.97;5033014;28;20445;-73
2023/07/17 07:57:36;;;;;;;11.80;7.43;;;;;;;44.99;32.59;97651.53;5050303;28;20025;-74
2023/07/17 08:00:02;;;;;;;9.57;7.57;;;;;;;45.90;31.67;97643.00;5063721;28;20021;-74
2023/07/17 08:02:28;;;;;;;10.13;7.80;;;;;;;46.11;31.69;97650.69;5069208;28;20384;-74
2023/07/17 08:04:53;;;;;;;11.75;7.88;;;;;;;46.35;31.59;97646.69;5064580;28;20469;-74
2023/07/17 08:07:19;;;;;;;13.50;8.40;;;;;;;46.65;30.96;97645.88;5050483;28;20035;-74
2023/07/17 08:09:44;;;;;;;24.70;20.48;;;;;;;46.86;31.30;97649.84;5050520;28;20082;-74
2023/07/17 08:12:09;;;;;;;15.23;8.90;;;;;;;46.83;30.82;97653.31;5050571;28;20425;-74
2023/07/17 08:14:35;;;;;;;11.30;8.57;;;;;;;47.02;30.16;97644.56;5050406;28;20036;-73
2023/07/17 08:17:01;;;;;;;12.07;8.07;;;;;;;45.98;30.93;97645.06;5049401;28;20476;-74
2023/07/17 08:19:26;;;;;;;17.08;10.60;;;;;;;46.68;30.99;97653.72;5050184;28;20025;-74
2023/07/17 08:21:51;;;;;;;14.38;9.02;;;;;;;46.75;30.32;97631.44;5049016;28;20063;-74
2023/07/17 08:24:17;;;;;;;15.25;8.70;;;;;;;46.30;30.76;97642.81;5066224;28;20086;-74
2023/07/17 08:26:43;;;;;;;10.80;7.93;;;;;;;46.11;31.07;97639.38;5052062;28;20032;-74
2023/07/17 08:29:10;;;;;;;11.30;8.40;;;;;;;47.09;30.39;97640.09;5069214;28;20454;-74
2023/07/17 08:31:59;;;;;;;10.93;7.82;;;;;;;47.22;30.28;97636.34;5068874;28;20052;-74
2023/07/17 08:34:24;;;;;;;16.92;8.50;;;;;;;46.54;30.62;97636.84;5048370;28;20064;-74
2023/07/17 08:36:50;;;;;;;23.38;9.23;;;;;;;46.86;30.01;97626.34;5050128;28;20443;-74
2023/07/17 08:39:15;;;;;;;11.60;8.63;;;;;;;47.18;29.05;97623.13;5049240;28;20064;-74
2023/07/17 08:41:45;;;;;;;11.80;8.35;;;;;;;47.88;28.27;97622.94;5050186;28;20036;-74
2023/07/17 08:44:16;;;;;;;12.32;7.85;;;;;;;46.85;29.05;97611.34;5049210;28;20054;-74
2023/07/17 08:46:42;;;;;;;;;;;;;;;47.11;28.93;97617.91;5066300;28;20028;-74
2023/07/17 08:49:08;;;;;;;9.90;7.20;;;;;;;47.65;28.26;97615.72;5048782;28;19928;-74
2023/07/17 08:51:33;;;;;;;12.73;7.88;;;;;;;47.25;28.59;97613.00;5048943;28;20024;-74
2023/07/17 08:53:59;;;;;;;9.88;7.60;;;;;;;47.85;27.89;97609.38;5048629;28;20025;-74
2023/07/17 08:56:25;;;;;;;9.10;7.82;;;;;;;47.90;27.50;97611.25;5032245;28;20472;-74
2023/07/17 08:58:51;;;;;;;16.25;7.82;;;;;;;48.90;26.95;97609.69;5048803;28;20040;-74
2023/07/17 09:01:17;;;;;;;14.90;8.48;;;;;;;49.04;26.52;97610.28;5048687;28;20048;-74
2023/07/17 09:03:43;;;;;;;11.55;7.82;;;;;;;49.41;25.88;97612.25;5048593;28;20025;-74
2023/07/17 09:06:13;;;;;;;7.95;7.15;;;;;;;48.45;26.92;97602.81;5031980;28;20039;-74
2023/07/17 09:08:38;;;;;;;12.75;7.13;;;;;;;48.95;26.02;97592.44;5048625;28;20048;-74
2023/07/17 09:11:06;;;;;;;11.15;7.53;;;;;;;49.09;26.17;97595.06;5051575;28;20033;-74
2023/07/17 09:13:42;;;;;;;11.70;8.48;;;;;;;49.63;26.03;97593.22;5052226;28;20029;-74
2023/07/17 09:16:21;;;;;;;10.65;7.60;;;;;;;49.51;25.67;97587.44;5052034;28;20020;-74
2023/07/17 09:18:47;;;;;;;12.05;7.30;;;;;;;49.19;25.50;97589.81;5035766;28;20029;-75
2023/07/17 09:21:14;;;;;;;10.57;7.90;;;;;;;49.11;25.75;97596.38;5054894;28;20372;-75
2023/07/17 09:23:43;;;;;;;13.77;7.75;;;;;;;49.29;25.45;97592.28;5051959;28;20047;-75
2023/07/17 09:26:08;;;;;;;9.30;7.30;;;;;;;49.03;24.90;97577.38;5053571;28;20033;-74
2023/07/17 09:28:37;;;;;;;22.85;7.80;;;;;;;50.04;24.25;97586.69;5058966;28;20479;-74
2023/07/17 09:31:03;;;;;;;12.30;6.45;;;;;;;50.98;22.01;97574.22;5053099;28;20048;-83
2023/07/17 09:33:29;;;;;;;10.52;7.50;;;;;;;50.41;23.03;97577.09;5060816;28;20025;-82
2023/07/17 09:35:56;;;;;;;13.07;8.35;;;;;;;48.67;24.40;97560.78;5063784;28;20028;-84
2023/07/17 09:38:26;;;;;;;15.63;7.38;;;;;;;48.25;25.08;97561.78;5073309;28;20029;-84
2023/07/17 09:40:52;;;;;;;10.38;8.10;;;;;;;48.73;25.41;97567.13;5059094;28;20484;-83
2023/07/17 09:43:30;;;;;;;16.58;7.85;;;;;;;48.17;25.61;97577.66;5038363;28;20029;-83
2023/07/17 09:46:00;;;;;;;12.80;8.18;;;;;;;48.34;25.98;97573.94;5054055;28;20042;-74
2023/07/17 09:48:28;;;;;;;14.00;7.55;;;;;;;46.36;27.57;97574.75;5057752;28;20055;-75
2023/07/17 09:50:59;;;;;;;11.02;7.57;;;;;;;47.04;27.19;97571.41;5048770;28;20040;-74
2023/07/17 09:53:25;;;;;;;11.85;7.07;;;;;;;47.77;25.17;97564.81;5048778;28;20036;-75
2023/07/17 09:55:52;;;;;;;11.40;7.10;;;;;;;46.89;25.63;97569.84;5049007;28;20496;-74
2023/07/17 09:58:18;;;;;;;9.60;7.07;;;;;;;48.22;23.90;97560.44;5049052;28;20039;-74
2023/07/17 10:00:44;;;;;;;8.70;6.38;;;;;;;48.59;23.00;97555.16;5049304;28;20048;-74
2023/07/17 10:03:13;;;;;;;10.40;6.80;;;;;;;47.43;23.90;97556.28;5032278;28;20028;-74
2023/07/17 10:05:39;;;;;;;10.77;6.93;;;;;;;46.87;25.56;97562.84;5052126;28;20040;-73
2023/07/17 10:08:06;;;;;;;14.82;6.82;;;;;;;47.61;24.96;97560.81;5051805;28;20044;-75
2023/07/17 10:10:32;;;;;;;7.63;6.85;;;;;;;47.90;24.91;97560.16;5069834;28;20028;-73
2023/07/17 10:12:57;;;;;;;10.13;6.72;;;;;;;47.94;24.38;97556.31;5068488;28;20032;-73
2023/07/17 10:15:23;;;;;;;10.25;7.25;;;;;;;48.03;25.35;97564.78;5051714;28;20526;-74
2023/07/17 10:17:59;;;;;;;9.93;7.05;;;;;;;46.34;25.34;97549.56;5068565;28;20062;-74
2023/07/17 10:20:26;;;;;;;9.60;6.38;;;;;;;47.42;24.20;97537.59;5051743;28;20028;-75
2023/07/17 10:22:51;;;;;;;16.08;11.45;;;;;;;47.90;24.24;97537.47;5067651;28;20128;-73
2023/07/17 10:25:17;;;;;;;6.63;6.03;;;;;;;47.78;24.18;97540.94;5068384;28;20042;-74
2023/07/17 10:27:46;;;;;;;11.32;6.53;;;;;;;48.43;23.76;97536.97;5069785;28;20028;-73
2023/07/17 10:30:27;;;;;;;7.50;5.97;;;;;;;48.83;23.20;97529.78;5068235;28;20044;-73
2023/07/17 10:33:13;;;;;;;6.93;6.22;;;;;;;49.13;22.69;97519.28;5067910;28;20028;-74
2023/07/17 10:35:56;;;;;;;8.38;6.18;;;;;;;49.01;22.47;97525.69;5032009;28;20381;-74
2023/07/17 10:38:28;;;;;;;7.05;6.15;;;;;;;49.24;22.67;97520.50;5048536;28;20025;-74
2023/07/17 10:41:11;;;;;;;7.65;5.45;;;;;;;49.61;22.28;97524.41;5069542;28;20074;-74
2023/07/17 10:43:37;;;;;;;8.57;6.20;;;;;;;49.99;21.88;97516.56;5068647;28;20047;-74
2023/07/17 10:46:09;;;;;;;9.27;5.82;;;;;;;49.88;22.15;97515.28;5051102;28;20032;-74
2023/07/17 10:48:35;;;;;;;6.55;5.90;;;;;;;50.24;21.93;97526.81;5067722;28;20037;-74
2023/07/17 10:51:01;;;;;;;7.45;6.50;;;;;;;49.33;23.24;97519.28;5068032;28;20028;-74
2023/07/17 10:53:26;;;;;;;10.02;6.50;;;;;;;49.56;23.62;97510.41;5067262;28;20024;-74
2023/07/17 10:55:52;;;;;;;11.95;6.72;;;;;;;49.48;23.69;97523.50;5067701;28;20046;-74
2023/07/17 10:58:19;;;;;;;10.27;6.05;;;;;;;50.58;22.49;97519.06;5067644;28;20029;-74
2023/07/17 11:00:45;;;;;;;10.35;7.18;;;;;;;50.89;21.38;97511.56;5067389;28;20404;-74
2023/07/17 11:03:13;;;;;;;12.25;6.70;;;;;;;49.66;22.58;97516.50;5067616;28;20036;-74
2023/07/17 11:05:40;;;;;;;11.10;6.30;;;;;;;50.45;22.44;97515.38;5050958;28;20036;-74
2023/07/17 11:08:09;;;;;;;17.73;6.03;;;;;;;50.73;22.17;97507.81;5067522;28;20115;-74
2023/07/17 11:10:36;;;;;;;10.60;6.00;;;;;;;50.98;22.36;97522.88;5067805;28;20526;-74
2023/07/17 11:13:02;;;;;;;8.52;6.55;;;;;;;50.60;21.76;97505.28;5050493;28;20116;-74